Time;durP1;ratioP1;P1;durP2;ratioP2;P2;SDS_P1;SDS_P2;PMS_P1;PMS_P2;Temp;Humidity;BMP_temperature;BMP_pressure;BME280_temperature;BME280_humidity;BME280_pressure;Samples;Min_cycle;Max_cycle;Signal;HPM_P1;HPM_P2
2021/06/14 00:14:53;;;;;;;6.70;6.13;;;15.50;68.30;;;;;;5188142;23;20485;-93
2021/06/14 00:17:22;;;;;;;6.33;5.93;;;;;;;;;;4963186;28;20469;-93
2021/06/14 00:19:51;;;;;;;6.20;5.80;;;15.60;69.80;;;;;;4978895;28;20450;-93
2021/06/14 00:22:22;;;;;;;5.30;5.07;;;15.60;68.30;;;;;;4980668;28;20438;-93
2021/06/14 00:27:24;;;;;;;6.70;6.20;;;15.70;92.40;;;;;;5327122;23;20474;-93
2021/06/14 00:43:07;;;;;;;6.93;6.40;;;15.50;67.50;;;;;;5609312;23;20478;-93
2021/06/14 00:45:42;;;;;;;6.37;5.97;;;15.30;68.70;;;;;;4963083;29;20415;-94
2021/06/14 00:48:09;;;;;;;7.43;6.80;;;15.30;68.70;;;;;;4979051;28;20414;-93
2021/06/14 00:53:23;;;;;;;5.97;5.57;;;15.20;71.80;;;;;;5006955;23;20470;-93
2021/06/14 00:55:51;;;;;;;9.53;5.33;;;15.20;71.90;;;;;;4960222;29;20435;-92
2021/06/14 00:58:21;;;;;;;7.17;6.33;;;12.60;66.90;;;;;;4959474;29;20455;-92
2021/06/14 01:00:47;;;;;;;6.47;6.03;;;;;;;;;;5194943;23;20552;-93
2021/06/14 01:03:13;;;;;;;6.73;6.17;;;;;;;;;;4981358;28;20425;-94
2021/06/14 02:49:57;;;;;;;5.87;5.37;;;14.40;93.30;;;;;;5319017;23;20495;-92
2021/06/14 03:15:42;;;;;;;5.90;5.50;;;13.70;74.20;;;;;;5377541;23;20279;-90
2021/06/14 03:28:29;;;;;;;6.30;5.77;;;13.60;74.90;;;;;;4978763;28;20484;-92
2021/06/14 03:49:08;;;;;;;7.63;6.67;;;13.60;76.70;;;;;;4942316;29;20464;-90
2021/06/14 03:51:34;;;;;;;5.53;5.13;;;13.20;78.40;;;;;;4925036;29;20431;-93
2021/06/14 03:54:00;;;;;;;5.50;5.30;;;13.80;93.90;;;;;;4941434;29;20408;-93
2021/06/14 03:59:04;;;;;;;6.50;6.00;;;13.60;91.50;;;;;;5383689;23;20478;-89
2021/06/14 04:32:39;;;;;;;6.50;5.50;;;14.30;78.10;;;;;;5828882;23;20443;-91
2021/06/14 04:37:46;;;;;;;7.57;6.83;;;;;;;;;;5010016;23;20488;-94
2021/06/14 04:40:12;;;;;;;5.80;5.40;;;14.70;91.60;;;;;;4976105;28;20474;-92
2021/06/14 04:42:38;;;;;;;5.53;5.17;;;16.80;83.00;;;;;;4975252;29;20419;-90
2021/06/14 04:45:10;;;;;;;6.10;5.60;;;18.00;91.10;;;;;;4952550;29;20821;-92
2021/06/14 04:47:41;;;;;;;6.43;5.83;;;15.60;75.00;;;;;;4969801;28;20438;-92
2021/06/14 04:50:10;;;;;;;7.10;6.10;;;18.00;79.90;;;;;;4953147;29;20449;-88
2021/06/14 04:52:39;;;;;;;5.50;5.20;;;16.20;67.40;;;;;;4968962;28;20512;-93
2021/06/14 04:55:05;;;;;;;5.97;5.53;;;16.90;68.10;;;;;;4954309;29;20422;-91
2021/06/14 04:57:31;;;;;;;6.43;5.17;;;19.70;71.30;;;;;;4967593;28;20533;-92
2021/06/14 04:59:56;;;;;;;4.80;4.50;;;17.70;69.00;;;;;;4971234;28;20429;-91
2021/06/14 05:02:23;;;;;;;5.43;5.03;;;18.00;66.20;;;;;;4969011;28;20183;-91
2021/06/14 05:04:49;;;;;;;6.33;5.73;;;18.00;67.40;;;;;;4972303;28;20182;-91
2021/06/14 05:07:15;;;;;;;5.50;4.97;;;18.60;62.30;;;;;;4957946;28;20473;-92
2021/06/14 05:09:40;;;;;;;9.67;5.30;;;19.00;62.90;;;;;;4945463;29;20189;-91
2021/06/14 05:12:07;;;;;;;4.93;4.63;;;19.10;61.00;;;;;;4945371;29;20451;-92
2021/06/14 05:14:32;;;;;;;5.43;5.13;;;19.50;57.40;;;;;;4944214;29;20183;-91
2021/06/14 05:16:58;;;;;;;6.03;5.30;;;19.90;58.00;;;;;;4943951;29;20427;-92
2021/06/14 05:19:24;;;;;;;6.10;5.70;;;;;;;;;;4942554;29;20663;-92
2021/06/14 05:21:51;;;;;;;6.07;5.60;;;19.90;55.60;;;;;;4942296;29;20639;-91
2021/06/14 05:24:17;;;;;;;4.50;4.27;;;20.90;55.80;;;;;;4945566;29;20492;-90
2021/06/14 05:26:43;;;;;;;5.40;4.93;;;20.50;83.20;;;;;;4943664;29;20455;-92
2021/06/14 05:29:10;;;;;;;6.03;4.87;;;20.70;69.90;;;;;;4963239;28;20209;-87
2021/06/14 05:31:35;;;;;;;4.73;4.33;;;20.80;68.90;;;;;;4970995;28;20175;-89
2021/06/14 05:34:01;;;;;;;5.33;4.83;;;;;;;;;;4957667;29;20446;-89
2021/06/14 05:36:30;;;;;;;5.60;5.00;;;20.40;51.70;;;;;;4945106;29;20175;-92
2021/06/14 05:38:56;;;;;;;7.17;5.63;;;19.80;51.40;;;;;;4943255;29;20467;-93
2021/06/14 05:41:22;;;;;;;7.40;4.57;;;;;;;;;;4946265;29;20467;-92
2021/06/14 05:43:48;;;;;;;4.00;3.80;;;22.60;50.90;;;;;;4947269;29;20167;-93
2021/06/14 05:46:17;;;;;;;5.80;5.07;;;22.40;51.90;;;;;;4929161;29;20431;-91
2021/06/14 05:48:43;;;;;;;6.40;5.90;;;23.00;55.60;;;;;;4943505;29;21002;-90
2021/06/14 05:51:11;;;;;;;6.23;5.10;;;;;;;;;;4946664;29;20423;-90
2021/06/14 05:53:40;;;;;;;6.37;4.67;;;23.90;48.60;;;;;;4949527;29;20238;-88
2021/06/14 05:56:08;;;;;;;3.90;3.60;;;24.10;49.70;;;;;;4949118;29;20419;-89
2021/06/14 05:58:39;;;;;;;7.67;7.03;;;27.20;47.00;;;;;;4933759;29;20430;-92
2021/06/14 06:01:04;;;;;;;4.10;3.80;;;25.10;43.70;;;;;;4950504;29;20455;-91
2021/06/14 06:03:39;;;;;;;3.60;3.40;;;25.00;40.00;;;;;;4950781;29;20489;-93
2021/06/14 06:06:05;;;;;;;5.23;4.00;;;26.40;42.10;;;;;;4939278;29;20179;-87
2021/06/14 06:08:31;;;;;;;3.60;3.40;;;;;;;;;;4937161;29;20435;-91
2021/06/14 06:10:56;;;;;;;3.30;3.17;;;25.70;37.80;;;;;;4938056;29;20167;-91
2021/06/14 06:13:25;;;;;;;3.10;2.90;;;26.40;37.60;;;;;;4938125;29;20412;-89
2021/06/14 06:15:53;;;;;;;5.73;4.53;;;26.70;36.10;;;;;;4920523;29;20179;-88
2021/06/14 06:18:19;;;;;;;4.50;2.80;;;27.00;36.00;;;;;;4937177;29;20430;-87
2021/06/14 06:20:44;;;;;;;5.50;3.93;;;27.10;35.30;;;;;;4940420;29;20478;-90
2021/06/14 06:23:24;;;;;;;5.10;2.90;;;27.00;35.40;;;;;;4949673;29;20171;-90
2021/06/14 06:25:50;;;;;;;4.57;4.27;;;29.00;37.70;;;;;;4945773;29;20251;-90
2021/06/14 06:28:16;;;;;;;3.20;3.10;;;27.40;33.90;;;;;;4937752;29;20880;-89
2021/06/14 06:30:42;;;;;;;3.90;3.20;;;27.90;35.40;;;;;;4940489;29;20450;-88
2021/06/14 06:33:11;;;;;;;3.03;2.80;;;27.90;33.00;;;;;;4939084;29;20632;-90
2021/06/14 06:35:39;;;;;;;3.90;3.23;;;28.20;33.20;;;;;;4939888;29;20280;-90
2021/06/14 06:38:05;;;;;;;3.40;3.30;;;28.30;33.10;;;;;;4938462;29;20506;-89
2021/06/14 06:40:31;;;;;;;4.50;4.17;;;29.50;34.20;;;;;;4939063;29;20498;-89
2021/06/14 06:42:57;;;;;;;3.30;3.10;;;;;;;;;;4938147;29;20419;-90
2021/06/14 06:45:28;;;;;;;3.90;3.60;;;27.70;39.70;;;;;;4941703;29;20173;-90
2021/06/14 06:47:53;;;;;;;4.27;3.50;;;27.60;37.60;;;;;;4924449;29;20439;-90
2021/06/14 06:50:22;;;;;;;4.20;3.43;;;27.10;40.90;;;;;;4940744;29;20446;-90
2021/06/14 06:52:47;;;;;;;3.33;3.13;;;26.80;40.30;;;;;;4943757;29;20168;-89
2021/06/14 06:55:19;;;;;;;4.13;3.93;;;27.10;41.30;;;;;;4946711;29;20426;-89
2021/06/14 06:57:50;;;;;;;3.83;3.30;;;27.20;39.00;;;;;;4945235;29;20176;-88
2021/06/14 07:00:22;;;;;;;3.50;3.27;;;29.50;37.70;;;;;;4948653;29;20469;-91
2021/06/14 07:02:48;;;;;;;4.93;3.60;;;27.00;37.20;;;;;;4950044;29;20937;-89
2021/06/14 07:05:15;;;;;;;3.47;3.17;;;27.70;36.80;;;;;;4954571;29;20520;-91
2021/06/14 07:07:42;;;;;;;4.23;3.20;;;28.20;36.90;;;;;;4944247;29;20411;-89
2021/06/14 07:10:09;;;;;;;3.87;3.57;;;28.70;36.30;;;;;;4945772;29;20426;-89
2021/06/14 07:12:44;;;;;;;3.60;3.50;;;28.70;36.10;;;;;;4946111;29;20475;-89
2021/06/14 07:15:12;;;;;;;3.93;3.63;;;29.30;34.10;;;;;;4928034;29;20922;-89
2021/06/14 07:17:42;;;;;;;3.77;3.40;;;29.40;34.90;;;;;;4943341;29;20431;-90
2021/06/14 07:20:09;;;;;;;3.33;3.13;;;29.40;34.30;;;;;;4945300;29;20455;-89
2021/06/14 07:22:39;;;;;;;6.00;3.33;;;29.10;34.00;;;;;;4947744;29;20497;-90
2021/06/14 07:25:06;;;;;;;5.00;2.90;;;28.50;34.30;;;;;;4945446;29;20430;-89
2021/06/14 07:27:33;;;;;;;3.13;2.93;;;28.70;34.70;;;;;;4931016;29;20787;-87
2021/06/14 07:30:00;;;;;;;4.30;3.60;;;30.60;36.50;;;;;;4947144;29;20423;-86
2021/06/14 07:32:27;;;;;;;4.50;3.57;;;27.70;34.80;;;;;;4945029;29;20438;-88
2021/06/14 07:37:44;;;;;;;3.03;2.90;;;27.60;34.10;;;;;;4943817;29;20471;-92
2021/06/14 07:40:11;;;;;;;2.57;2.47;;;27.50;36.10;;;;;;4935233;29;20461;-91
2021/06/14 07:42:37;;;;;;;5.47;3.27;;;28.30;35.70;;;;;;4930197;29;20183;-89
2021/06/14 07:45:03;;;;;;;4.00;3.80;;;27.70;35.40;;;;;;4930284;29;20415;-90
2021/06/14 07:47:29;;;;;;;4.10;3.90;;;29.60;36.80;;;;;;4930496;29;20427;-91
2021/06/14 07:50:01;;;;;;;3.40;3.30;;;28.00;34.80;;;;;;4932622;29;20428;-91
2021/06/14 07:52:28;;;;;;;5.97;4.00;;;29.80;33.70;;;;;;4948923;29;20243;-91
2021/06/14 07:54:53;;;;;;;3.00;2.80;;;33.00;35.10;;;;;;4951345;29;20475;-91
2021/06/14 07:57:29;;;;;;;3.27;3.13;;;28.90;33.80;;;;;;4936289;29;20435;-93
2021/06/14 08:00:08;;;;;;;3.87;3.60;;;29.00;33.40;;;;;;4936229;29;20174;-93
2021/06/14 08:02:47;;;;;;;3.17;3.07;;;29.30;33.30;;;;;;4957373;29;20423;-89
2021/06/14 08:05:17;;;;;;;3.40;3.10;;;29.30;32.80;;;;;;4925219;29;20438;-88
2021/06/14 08:07:46;;;;;;;3.67;3.53;;;29.70;33.50;;;;;;4938063;29;20431;-91
2021/06/14 08:10:35;;;;;;;3.60;3.40;;;28.60;30.00;;;;;;4955583;29;20419;-87
2021/06/14 08:13:02;;;;;;;3.43;3.13;;;28.70;30.30;;;;;;4954833;29;20423;-88
2021/06/14 08:15:33;;;;;;;3.33;3.07;;;29.80;32.10;;;;;;4941435;29;20491;-90
2021/06/14 08:18:20;;;;;;;3.70;2.87;;;29.40;32.40;;;;;;4957024;29;20428;-88
2021/06/14 08:25:50;;;;;;;3.60;3.40;;;30.50;31.10;;;;;;4940642;29;20410;-85
2021/06/14 08:28:17;;;;;;;3.80;3.60;;;30.70;32.20;;;;;;4937256;29;20426;-85
2021/06/14 08:30:42;;;;;;;3.80;3.60;;;30.80;32.20;;;;;;4935710;29;20215;-85
2021/06/14 08:33:09;;;;;;;3.17;3.17;;;32.00;32.00;;;;;;4919145;29;20427;-86
2021/06/14 08:35:40;;;;;;;4.63;3.37;;;30.20;44.40;;;;;;5072526;23;21068;-91
2021/06/14 08:38:08;;;;;;;3.63;3.53;;;30.20;31.60;;;;;;4957156;29;20918;-90
2021/06/14 08:40:36;;;;;;;3.30;3.10;;;30.00;31.50;;;;;;4956767;29;20473;-93
2021/06/14 08:43:04;;;;;;;3.43;3.20;;;30.60;31.00;;;;;;4953434;29;20429;-93
2021/06/14 08:45:35;;;;;;;3.67;3.25;;;31.10;30.40;;;;;;4647162;28;10000998;-95
2021/06/14 08:48:08;;;;;;;5.20;3.87;;;30.80;30.80;;;;;;4991957;28;20386;-90
2021/06/14 08:50:35;;;;;;;3.10;3.00;;;32.30;31.40;;;;;;4954810;29;20419;-84
2021/06/14 08:53:00;;;;;;;4.03;3.57;;;32.20;32.50;;;;;;4949776;29;20437;-83
2021/06/14 08:55:26;;;;;;;3.27;3.17;;;31.30;30.80;;;;;;4950595;28;20414;-85
2021/06/14 08:58:02;;;;;;;4.17;3.93;;;32.80;31.60;;;;;;4965312;28;20198;-95
2021/06/14 09:00:33;;;;;;;3.40;3.30;;;33.50;30.60;;;;;;4994247;28;20198;-93
2021/06/14 09:05:34;;;;;;;4.10;3.80;;;31.50;40.50;;;;;;5001543;23;20488;-88
2021/06/14 09:08:06;;;;;;;5.00;3.40;;;31.40;30.20;;;;;;4955059;29;20451;-91
2021/06/14 09:10:34;;;;;;;3.93;3.60;;;;;;;;;;4957532;28;20180;-88
2021/06/14 09:13:09;;;;;;;3.87;3.57;;;32.30;29.90;;;;;;4954915;29;20408;-87
2021/06/14 09:16:03;;;;;;;6.67;3.20;;;33.20;29.40;;;;;;4953755;28;20446;-90
2021/06/14 09:18:29;;;;;;;3.77;3.57;;;34.40;29.30;;;;;;4946551;29;20432;-90
2021/06/14 09:21:10;;;;;;;3.97;3.87;;;34.80;31.40;;;;;;4937596;29;20466;-87
2021/06/14 09:23:50;;;;;;;3.73;3.60;;;32.90;28.70;;;;;;4937197;29;20295;-90
2021/06/14 09:26:25;;;;;;;4.10;3.90;;;33.90;29.40;;;;;;4937603;29;20416;-89
2021/06/14 09:28:56;;;;;;;3.50;3.30;;;33.40;29.20;;;;;;4937561;29;20398;-90
2021/06/14 09:31:28;;;;;;;3.47;3.27;;;34.60;29.50;;;;;;4922781;29;20424;-87
2021/06/14 09:33:54;;;;;;;7.97;4.27;;;34.30;29.40;;;;;;4938695;29;20479;-89
2021/06/14 09:36:21;;;;;;;3.90;3.70;;;35.50;30.40;;;;;;4941715;28;20419;-89
2021/06/14 09:38:47;;;;;;;4.37;4.20;;;33.90;28.60;;;;;;4944817;29;20586;-89
2021/06/14 09:41:18;;;;;;;3.90;3.60;;;33.40;28.50;;;;;;4952773;28;20544;-89
2021/06/14 09:43:46;;;;;;;4.20;3.90;;;33.60;28.30;;;;;;4953272;28;20171;-90
2021/06/14 09:46:20;;;;;;;3.67;3.40;;;34.50;28.80;;;;;;4940745;29;20518;-91
2021/06/14 09:48:47;;;;;;;4.60;4.43;;;35.70;29.70;;;;;;4965390;28;20406;-93
2021/06/14 09:51:13;;;;;;;3.57;3.47;;;35.50;29.70;;;;;;4922971;29;20433;-88
2021/06/14 09:54:20;;;;;;;3.30;3.20;;;33.60;28.50;;;;;;4947070;29;20935;-90
2021/06/14 09:56:53;;;;;;;4.67;4.27;;;33.50;28.10;;;;;;4949025;29;20201;-89
2021/06/14 09:59:32;;;;;;;3.50;3.30;;;33.90;28.90;;;;;;4948778;28;20430;-94
2021/06/14 10:02:19;;;;;;;4.50;4.07;;;34.90;29.90;;;;;;4930288;29;20497;-92
2021/06/14 10:04:46;;;;;;;4.17;3.83;;;35.50;29.40;;;;;;4920005;29;20423;-93
2021/06/14 10:07:24;;;;;;;4.40;3.87;;;35.80;29.90;;;;;;4945541;29;20479;-93
2021/06/14 10:09:52;;;;;;;3.53;3.43;;;34.50;29.50;;;;;;4927655;29;20424;-87
2021/06/14 10:12:51;;;;;;;3.47;3.27;;;34.00;28.50;;;;;;4936471;29;20459;-90
2021/06/14 10:15:26;;;;;;;3.90;3.70;;;35.30;29.00;;;;;;4936044;29;20447;-92
2021/06/14 10:17:52;;;;;;;3.80;3.60;;;35.10;27.90;;;;;;4945477;29;20422;-88
2021/06/14 10:20:19;;;;;;;3.80;3.57;;;34.80;27.00;;;;;;4948275;29;20460;-91
2021/06/14 10:22:46;;;;;;;4.00;3.80;;;34.80;27.10;;;;;;4949114;29;20172;-93
2021/06/14 10:25:14;;;;;;;3.80;3.50;;;37.00;28.70;;;;;;4945326;29;21059;-86
2021/06/14 10:27:41;;;;;;;3.97;3.70;;;35.10;27.30;;;;;;4920843;29;20596;-84
2021/06/14 10:30:08;;;;;;;4.03;3.50;;;36.10;26.90;;;;;;4911129;29;20465;-85
2021/06/14 10:32:36;;;;;;;3.10;3.00;;;35.80;26.20;;;;;;4905169;29;20440;-83
2021/06/14 10:35:04;;;;;;;2.90;2.90;;;37.50;26.70;;;;;;4899817;29;20829;-90
2021/06/14 10:37:30;;;;;;;3.20;3.10;;;;;;;;;;4924603;29;20468;-90
2021/06/14 10:39:58;;;;;;;3.47;3.37;;;35.30;26.00;;;;;;4906416;29;20420;-87
2021/06/14 10:42:24;;;;;;;2.80;2.80;;;35.60;26.40;;;;;;4901298;29;20537;-88
2021/06/14 10:44:49;;;;;;;6.70;3.47;;;36.30;25.30;;;;;;4914898;29;20488;-90
2021/06/14 10:47:15;;;;;;;3.67;3.30;;;36.00;26.00;;;;;;4909463;29;20445;-88
2021/06/14 10:49:42;;;;;;;3.60;3.50;;;35.90;26.00;;;;;;4918033;29;20275;-88
2021/06/14 10:52:08;;;;;;;4.00;3.70;;;36.00;25.90;;;;;;4920029;29;20475;-87
2021/06/14 10:54:41;;;;;;;3.93;3.50;;;36.30;26.10;;;;;;4919466;29;20817;-87
2021/06/14 10:57:09;;;;;;;3.30;3.10;;;36.60;25.70;;;;;;4920911;29;20412;-88
2021/06/14 10:59:37;;;;;;;3.90;3.80;;;36.90;26.00;;;;;;4918716;29;20776;-87
2021/06/14 11:02:08;;;;;;;3.10;2.90;;;38.20;25.80;;;;;;4919809;29;20558;-88
2021/06/14 11:04:34;;;;;;;3.30;3.03;;;37.40;24.80;;;;;;4919772;29;20471;-87
2021/06/14 11:07:00;;;;;;;2.70;2.60;;;37.20;24.90;;;;;;4928456;29;20968;-88
2021/06/14 11:09:44;;;;;;;2.97;2.87;;;36.70;24.00;;;;;;4942692;29;20458;-91
2021/06/14 11:15:11;;;;;;;3.70;3.40;;;36.30;24.90;;;;;;4981148;23;20521;-88
2021/06/14 11:17:39;;;;;;;3.97;3.63;;;36.20;25.10;;;;;;4920264;29;20489;-90
2021/06/14 11:20:13;;;;;;;3.63;3.43;;;36.60;25.90;;;;;;4933835;29;20435;-90
2021/06/14 11:22:41;;;;;;;3.60;3.37;;;38.00;25.40;;;;;;4915172;29;20439;-92
2021/06/14 11:25:42;;;;;;;5.63;3.90;;;36.90;25.70;;;;;;4932816;29;20439;-88
2021/06/14 11:28:11;;;;;;;3.60;3.33;;;36.90;25.00;;;;;;4919062;29;20439;-91
2021/06/14 11:30:41;;;;;;;3.10;3.00;;;37.00;25.20;;;;;;4918392;29;20633;-90
2021/06/14 11:33:09;;;;;;;3.30;3.20;;;37.90;24.90;;;;;;4946177;29;20423;-92
2021/06/14 11:35:52;;;;;;;3.50;3.30;;;38.30;25.60;;;;;;4946936;29;20760;-94
2021/06/14 11:38:20;;;;;;;3.63;3.03;;;39.00;27.10;;;;;;4944705;29;20474;-93
2021/06/14 11:40:57;;;;;;;5.73;3.53;;;37.50;24.90;;;;;;4931930;29;20451;-93
2021/06/14 11:43:29;;;;;;;3.70;3.60;;;37.80;24.90;;;;;;4939041;29;20411;-92
2021/06/14 11:46:19;;;;;;;3.37;3.20;;;36.60;25.60;;;;;;5098209;23;20521;-95
2021/06/14 11:48:51;;;;;;;3.77;3.47;;;35.10;25.30;;;;;;4955918;29;20442;-94
2021/06/14 11:51:20;;;;;;;3.70;3.50;;;37.60;26.60;;;;;;4971755;28;20463;-92
2021/06/14 11:53:57;;;;;;;4.27;3.83;;;38.10;25.50;;;;;;4969954;28;20462;-91
2021/06/14 11:56:27;;;;;;;3.33;3.23;;;38.40;24.80;;;;;;4968253;29;20726;-92
2021/06/14 11:58:53;;;;;;;3.23;3.13;;;38.50;25.20;;;;;;4952719;29;20427;-93
2021/06/14 12:01:26;;;;;;;3.97;3.60;;;39.50;25.70;;;;;;4967273;28;20473;-95
2021/06/14 12:04:21;;;;;;;3.73;3.53;;;38.60;25.00;;;;;;4950377;29;20736;-93
2021/06/14 12:06:50;;;;;;;3.50;3.40;;;39.40;24.80;;;;;;4948885;29;20407;-93
2021/06/14 12:09:26;;;;;;;2.90;2.87;;;40.10;25.20;;;;;;4932630;29;20415;-94
2021/06/14 12:12:02;;;;;;;3.60;3.50;;;39.40;25.20;;;;;;4947809;29;20474;-91
2021/06/14 12:14:29;;;;;;;4.00;3.30;;;37.90;24.90;;;;;;4931684;29;20427;-93
2021/06/14 12:17:00;;;;;;;3.57;3.27;;;38.20;25.50;;;;;;4933249;29;20419;-91
2021/06/14 12:19:29;;;;;;;3.57;3.40;;;38.80;24.80;;;;;;4950405;29;20450;-93
2021/06/14 12:22:02;;;;;;;3.97;3.27;;;40.40;25.20;;;;;;4947980;29;20426;-90
2021/06/14 12:24:30;;;;;;;3.73;3.63;;;39.30;25.50;;;;;;4931532;29;20427;-95
2021/06/14 12:27:04;;;;;;;3.70;3.50;;;38.90;25.40;;;;;;4947130;29;20415;-93
2021/06/14 12:29:31;;;;;;;3.37;3.27;;;38.50;24.80;;;;;;4940932;29;20446;-94
2021/06/14 12:32:06;;;;;;;4.37;3.43;;;39.40;24.50;;;;;;4930877;29;20550;-94
2021/06/14 12:34:39;;;;;;;3.72;3.45;;;38.70;24.80;;;;;;4609075;28;9999807;-93
2021/06/14 12:37:09;;;;;;;3.30;3.20;;;38.90;24.90;;;;;;4965749;28;20906;-92
2021/06/14 12:39:36;;;;;;;3.90;3.30;;;39.20;24.70;;;;;;4966419;28;20422;-95
2021/06/14 12:42:03;;;;;;;3.50;3.40;;;39.00;25.10;;;;;;4947169;29;20426;-92
2021/06/14 12:44:28;;;;;;;3.87;3.57;;;38.30;25.00;;;;;;4946984;29;20419;-93
2021/06/14 12:46:54;;;;;;;7.80;3.43;;;38.60;25.70;;;;;;4944198;29;20463;-94
2021/06/14 12:49:30;;;;;;;3.80;3.50;;;39.70;26.20;;;;;;4942641;29;20175;-94
2021/06/14 12:51:56;;;;;;;3.40;3.10;;;38.60;24.20;;;;;;4939449;29;20225;-92
2021/06/14 12:54:22;;;;;;;3.60;3.30;;;38.80;25.90;;;;;;4942839;29;20420;-90
2021/06/14 12:56:56;;;;;;;3.13;3.03;;;39.40;25.40;;;;;;4941945;29;20631;-90
2021/06/14 12:59:22;;;;;;;3.63;3.33;;;39.40;24.50;;;;;;4951301;29;20470;-91
2021/06/14 13:01:48;;;;;;;3.90;3.70;;;39.80;25.60;;;;;;4952137;29;20420;-92
2021/06/14 13:04:14;;;;;;;3.47;3.27;;;39.50;25.00;;;;;;4953118;29;20431;-93
2021/06/14 13:06:42;;;;;;;7.53;4.47;;;40.50;24.90;;;;;;4946285;29;20435;-92
2021/06/14 13:09:08;;;;;;;3.93;3.70;;;40.00;24.10;;;;;;4946788;29;20415;-93
2021/06/14 13:11:45;;;;;;;3.67;3.40;;;40.10;24.60;;;;;;4943138;29;20481;-95
2021/06/14 13:14:11;;;;;;;3.30;3.20;;;39.40;24.30;;;;;;4941815;29;20418;-92
2021/06/14 13:16:45;;;;;;;3.10;3.00;;;41.20;25.20;;;;;;4944849;29;20424;-92
2021/06/14 13:19:11;;;;;;;3.83;3.73;;;38.80;23.80;;;;;;4943676;29;20895;-93
2021/06/14 13:21:43;;;;;;;2.97;2.90;;;39.00;25.40;;;;;;4942369;29;20431;-94
2021/06/14 13:24:11;;;;;;;3.40;3.30;;;39.30;25.10;;;;;;4944983;29;20953;-92
2021/06/14 13:26:46;;;;;;;3.30;3.20;;;39.20;24.40;;;;;;4942415;29;20425;-92
2021/06/14 13:29:25;;;;;;;3.93;3.40;;;39.20;24.20;;;;;;4939981;29;20926;-92
2021/06/14 13:32:03;;;;;;;4.90;4.50;;;38.60;24.30;;;;;;4919766;29;20491;-93
2021/06/14 13:34:34;;;;;;;3.80;3.50;;;40.40;25.70;;;;;;4916618;29;20445;-93
2021/06/14 13:37:06;;;;;;;3.60;3.30;;;38.80;24.60;;;;;;4922234;29;20443;-93
2021/06/14 13:39:37;;;;;;;3.43;3.33;;;38.70;24.70;;;;;;4923908;29;20424;-91
2021/06/14 13:42:10;;;;;;;3.43;3.17;;;38.70;25.10;;;;;;4925669;29;20463;-93
2021/06/14 13:44:47;;;;;;;3.87;3.60;;;39.00;24.40;;;;;;4927290;29;20424;-93
2021/06/14 13:47:19;;;;;;;3.40;3.20;;;40.00;25.30;;;;;;4962849;28;20480;-93
2021/06/14 13:49:49;;;;;;;3.57;3.47;;;39.70;24.30;;;;;;4964075;29;20965;-94
2021/06/14 13:52:21;;;;;;;3.30;3.10;;;40.40;24.40;;;;;;4963506;29;20498;-93
2021/06/14 13:55:02;;;;;;;3.20;3.10;;;40.50;25.10;;;;;;4966662;29;20426;-90
2021/06/14 13:57:28;;;;;;;6.30;3.40;;;40.30;24.10;;;;;;4965378;28;20426;-90
2021/06/14 14:00:14;;;;;;;3.63;3.30;;;39.90;25.10;;;;;;4945690;29;20969;-91
2021/06/14 14:02:50;;;;;;;4.30;4.00;;;39.10;24.50;;;;;;4971933;28;20516;-93
2021/06/14 14:05:31;;;;;;;3.57;3.40;;;38.90;25.00;;;;;;4977703;28;21024;-86
2021/06/14 14:07:58;;;;;;;3.70;3.57;;;38.80;24.90;;;;;;4980301;28;20402;-92
2021/06/14 14:10:28;;;;;;;3.93;3.53;;;39.20;25.70;;;;;;4977862;28;20464;-92
2021/06/14 14:12:55;;;;;;;4.30;4.03;;;40.10;26.10;;;;;;4978520;28;20414;-92
2021/06/14 14:15:40;;;;;;;4.20;4.07;;;39.50;25.90;;;;;;4961286;28;20473;-92
2021/06/14 14:18:07;;;;;;;3.40;3.20;;;38.70;26.00;;;;;;4938692;29;20419;-94
2021/06/14 14:20:33;;;;;;;5.87;4.03;;;39.10;25.70;;;;;;4936183;29;20483;-91
2021/06/14 14:23:01;;;;;;;4.67;4.17;;;39.40;26.50;;;;;;4933997;29;20436;-91
2021/06/14 14:25:28;;;;;;;6.40;4.10;;;38.90;25.60;;;;;;4931189;29;20172;-94
2021/06/14 14:27:55;;;;;;;4.07;3.80;;;39.10;26.30;;;;;;4945138;29;20444;-94
2021/06/14 14:30:31;;;;;;;4.30;4.10;;;38.60;26.40;;;;;;4930223;29;20287;-93
2021/06/14 14:33:04;;;;;;;5.13;3.67;;;38.60;25.60;;;;;;4941940;29;20461;-92
2021/06/14 14:35:52;;;;;;;7.63;4.97;;;36.60;26.50;;;;;;4932460;29;20430;-91
2021/06/14 14:38:18;;;;;;;3.87;3.67;;;38.40;25.70;;;;;;4943012;29;20418;-90
2021/06/14 14:40:45;;;;;;;4.53;4.23;;;37.60;25.50;;;;;;4943377;29;20867;-90
2021/06/14 14:43:12;;;;;;;4.40;4.10;;;37.40;25.60;;;;;;4941630;29;20419;-91
2021/06/14 14:45:39;;;;;;;4.60;4.30;;;36.90;25.70;;;;;;4944585;29;20426;-91
2021/06/14 14:48:07;;;;;;;7.83;4.03;;;36.40;26.10;;;;;;4944970;29;20493;-89
2021/06/14 14:50:38;;;;;;;4.20;3.90;;;36.40;26.20;;;;;;4945725;29;20475;-88
2021/06/14 14:53:04;;;;;;;5.40;4.33;;;35.60;26.10;;;;;;4951326;29;20431;-88
2021/06/14 14:55:31;;;;;;;4.00;3.90;;;35.80;27.30;;;;;;4940230;29;20419;-89
2021/06/14 14:57:57;;;;;;;3.73;3.63;;;34.00;27.30;;;;;;4938996;29;20470;-88
2021/06/14 15:00:24;;;;;;;3.83;3.73;;;33.40;27.20;;;;;;4939929;29;20510;-88
2021/06/14 15:02:50;;;;;;;6.13;5.27;;;34.40;28.70;;;;;;4939578;29;20744;-88
2021/06/14 15:05:16;;;;;;;4.37;4.10;;;33.00;28.50;;;;;;4939867;29;20419;-87
2021/06/14 15:07:44;;;;;;;5.33;4.93;;;32.40;29.00;;;;;;4940772;29;20462;-92
2021/06/14 15:10:14;;;;;;;6.07;4.80;;;31.60;29.80;;;;;;4949111;29;20518;-91
2021/06/14 15:12:41;;;;;;;6.23;4.80;;;31.50;29.90;;;;;;4938081;29;20411;-84
2021/06/14 15:15:09;;;;;;;4.47;4.10;;;31.50;29.40;;;;;;4936105;29;20407;-83
2021/06/14 15:17:39;;;;;;;5.20;4.80;;;31.00;29.70;;;;;;4937338;29;20506;-81
2021/06/14 15:20:10;;;;;;;5.60;5.37;;;30.80;29.70;;;;;;4936993;29;20403;-82
2021/06/14 15:22:38;;;;;;;22.97;19.53;;;30.60;29.90;;;;;;4936267;29;20419;-82
2021/06/14 15:25:06;;;;;;;5.47;5.00;;;30.10;30.00;;;;;;4937685;29;20431;-84
2021/06/14 15:27:32;;;;;;;4.67;4.27;;;30.30;30.30;;;;;;4948587;29;20422;-88
2021/06/14 15:32:47;;;;;;;11.23;7.03;;;28.80;30.00;;;;;;5019894;23;20553;-91
2021/06/14 15:35:19;;;;;;;5.97;5.47;;;30.40;30.70;;;;;;4951767;29;20478;-90
2021/06/14 15:38:02;;;;;;;4.63;4.33;;;30.20;31.30;;;;;;4956490;29;20411;-90
2021/06/14 15:40:41;;;;;;;5.27;4.77;;;30.50;31.40;;;;;;4954800;29;20425;-91
2021/06/14 15:43:06;;;;;;;5.87;5.47;;;31.90;31.70;;;;;;4934771;29;20461;-90
2021/06/14 15:45:33;;;;;;;5.53;5.20;;;30.00;33.20;;;;;;4934599;29;20443;-90
2021/06/14 15:48:03;;;;;;;5.40;5.00;;;30.40;31.30;;;;;;4932566;29;20419;-90
2021/06/14 15:50:38;;;;;;;7.43;5.90;;;30.30;31.30;;;;;;4927755;29;20473;-91
2021/06/14 15:53:05;;;;;;;5.90;5.40;;;30.00;32.10;;;;;;4935451;29;20418;-89
2021/06/14 16:01:48;;;;;;;5.90;5.40;;;30.70;33.00;;;;;;4368050;28;20491;-89
2021/06/14 16:04:16;;;;;;;8.20;4.73;;;29.90;31.10;;;;;;4954499;29;20866;-90
2021/06/14 16:06:42;;;;;;;5.30;5.00;;;30.20;31.80;;;;;;4949425;29;20461;-88
2021/06/14 16:09:08;;;;;;;5.40;5.10;;;29.70;32.30;;;;;;4946239;29;20427;-89
2021/06/14 16:11:35;;;;;;;5.53;5.17;;;31.30;32.30;;;;;;4946752;28;20202;-88
2021/06/14 16:14:00;;;;;;;5.37;5.10;;;30.70;31.50;;;;;;4948411;28;20932;-88
2021/06/14 16:16:28;;;;;;;6.00;5.70;;;;;;;;;;4942929;28;20427;-85
2021/06/14 16:18:54;;;;;;;5.67;5.37;;;30.20;31.10;;;;;;4937609;29;20230;-86
2021/06/14 16:21:20;;;;;;;6.73;6.30;;;30.40;31.60;;;;;;4938242;29;20423;-87
2021/06/14 16:23:49;;;;;;;6.27;5.70;;;31.60;32.60;;;;;;4945604;29;20428;-87
2021/06/14 16:26:16;;;;;;;6.43;5.30;;;30.10;32.00;;;;;;4947067;29;20912;-87
2021/06/14 16:28:44;;;;;;;7.30;5.90;;;28.50;31.10;;;;;;4939581;29;20533;-88
2021/06/14 16:31:11;;;;;;;8.57;5.73;;;30.20;31.90;;;;;;4942271;29;20528;-87
2021/06/14 16:33:37;;;;;;;5.30;4.93;;;31.00;32.70;;;;;;4949295;28;20432;-84
2021/06/14 16:36:03;;;;;;;4.60;4.40;;;30.90;32.20;;;;;;4950610;29;20423;-89
2021/06/14 16:38:29;;;;;;;4.90;4.57;;;30.10;31.90;;;;;;4934877;29;20179;-87
2021/06/14 16:40:55;;;;;;;5.37;5.00;;;;;;;;;;4943756;23;20934;-88
2021/06/14 16:43:20;;;;;;;8.80;5.93;;;29.90;31.60;;;;;;4916709;29;20199;-87
2021/06/14 16:45:46;;;;;;;6.80;5.20;;;31.50;33.30;;;;;;4917422;29;20408;-86
2021/06/14 16:48:12;;;;;;;8.00;5.30;;;29.90;33.30;;;;;;4899772;29;20219;-87
2021/06/14 16:50:37;;;;;;;14.20;6.03;;;29.90;32.90;;;;;;4917275;29;20204;-87
2021/06/14 16:53:03;;;;;;;6.30;5.73;;;28.70;32.20;;;;;;4915622;29;20299;-87
2021/06/14 16:55:29;;;;;;;6.07;5.73;;;29.90;32.60;;;;;;4897956;29;20176;-86
2021/06/14 16:57:55;;;;;;;6.77;6.40;;;29.90;33.10;;;;;;4897412;29;20455;-86
2021/06/14 17:00:21;;;;;;;5.70;5.30;;;31.10;33.90;;;;;;4897988;29;20203;-87
2021/06/14 17:02:49;;;;;;;5.50;5.03;;;29.90;32.80;;;;;;4898125;29;20181;-86
2021/06/14 17:05:16;;;;;;;6.10;5.73;;;30.60;33.30;;;;;;4903082;29;20246;-91
2021/06/14 17:07:57;;;;;;;6.50;5.80;;;29.90;32.40;;;;;;4896118;29;20900;-93
2021/06/14 17:10:23;;;;;;;6.03;5.40;;;29.90;32.60;;;;;;4894539;29;22406;-90